Time;durP1;ratioP1;P1;durP2;ratioP2;P2;SDS_P1;SDS_P2;PMS_P1;PMS_P2;Temp;Humidity;BMP_temperature;BMP_pressure;BME280_temperature;BME280_humidity;BME280_pressure;Samples;Min_cycle;Max_cycle;Signal;HPM_P1;HPM_P2
2022/06/01 00:00:01;;;;;;;2.10;1.40;;;;;;;13.78;73.12;99843.06;1757948;81;21008;-82
2022/06/01 00:02:28;;;;;;;1.40;1.35;;;;;;;13.79;73.03;99834.22;1758001;81;21016;-82
2022/06/01 00:04:55;;;;;;;1.50;1.40;;;;;;;13.80;72.80;99835.91;1758054;81;21055;-82
2022/06/01 00:07:23;;;;;;;3.05;1.52;;;;;;;13.80;72.60;99834.59;1758113;81;21067;-82
2022/06/01 00:09:49;;;;;;;4.42;1.75;;;;;;;13.79;72.40;99832.89;1758119;81;21556;-83
2022/06/01 00:12:17;;;;;;;1.40;1.12;;;;;;;13.79;72.22;99823.64;1758357;81;21038;-83
2022/06/01 00:14:43;;;;;;;1.45;1.35;;;;;;;13.79;71.96;99822.31;1757911;81;20995;-82
2022/06/01 00:17:09;;;;;;;1.25;1.15;;;;;;;13.79;71.95;99823.64;1758022;81;21062;-82
2022/06/01 00:19:36;;;;;;;2.00;1.30;;;;;;;13.80;71.77;99821.37;1757649;81;21000;-82
2022/06/01 00:22:12;;;;;;;1.30;1.20;;;;;;;13.79;71.55;99826.28;1757849;81;21120;-82
2022/06/01 00:24:39;;;;;;;1.40;1.30;;;;;;;13.76;71.29;99823.29;1758071;81;21020;-82
2022/06/01 00:27:06;;;;;;;1.40;1.22;;;;;;;13.74;70.97;99826.00;1757571;81;21036;-82
2022/06/01 00:29:34;;;;;;;1.00;1.00;;;;;;;13.71;70.88;99828.77;1757934;81;21004;-82
2022/06/01 00:32:01;;;;;;;2.65;1.20;;;;;;;13.69;70.80;99825.34;1757468;81;21012;-83
2022/06/01 00:34:27;;;;;;;1.20;1.17;;;;;;;13.67;70.72;99823.23;1757949;81;22372;-82
2022/06/01 00:36:54;;;;;;;1.90;1.30;;;;;;;13.64;70.76;99822.03;1760069;80;21016;-82
2022/06/01 00:39:20;;;;;;;1.50;1.40;;;;;;;13.62;70.68;99824.36;1758324;80;21071;-82
2022/06/01 00:41:46;;;;;;;2.05;1.30;;;;;;;13.61;70.75;99830.56;1737888;81;21438;-82
2022/06/01 00:44:13;;;;;;;3.40;1.22;;;;;;;13.59;70.85;99834.59;1719533;83;21583;-82
2022/06/01 00:46:39;;;;;;;1.32;1.22;;;;;;;13.57;70.92;99839.08;1719803;83;22213;-83
2022/06/01 00:49:17;;;;;;;1.32;1.22;;;;;;;13.56;70.94;99840.84;1719395;83;21642;-83
2022/06/01 00:51:44;;;;;;;2.30;1.40;;;;;;;13.57;70.97;99837.77;1719410;83;21061;-83
2022/06/01 00:54:11;;;;;;;1.60;1.50;;;;;;;13.55;70.90;99840.94;1719640;83;21068;-82
2022/06/01 00:56:43;;;;;;;7.28;1.52;;;;;;;13.53;70.96;99836.16;1719334;83;21109;-83
2022/06/01 00:59:13;;;;;;;1.60;1.50;;;;;;;13.55;71.16;99834.33;1719781;83;22036;-83
2022/06/01 01:01:39;;;;;;;2.15;1.65;;;;;;;13.54;71.20;99839.20;1719225;83;21007;-82
2022/06/01 01:04:06;;;;;;;1.42;1.32;;;;;;;13.54;71.17;99841.37;1719811;83;21072;-83
2022/06/01 01:06:39;;;;;;;3.33;1.35;;;;;;;13.55;71.04;99836.97;1719495;83;21124;-83
2022/06/01 01:09:08;;;;;;;1.77;1.30;;;;;;;13.56;70.91;99841.31;1719649;83;21029;-83
2022/06/01 01:11:55;;;;;;;1.30;1.30;;;;;;;13.54;70.93;99844.02;1719485;83;21641;-83
2022/06/01 01:14:26;;;;;;;1.50;1.40;;;;;;;13.53;70.83;99842.32;1719151;83;21032;-83
2022/06/01 01:16:54;;;;;;;1.37;1.27;;;;;;;13.54;70.76;99841.84;1719374;83;21307;-83
2022/06/01 01:19:46;;;;;;;1.50;1.40;;;;;;;13.54;70.66;99841.84;1719689;83;21080;-82
2022/06/01 01:22:52;;;;;;;1.45;1.37;;;;;;;13.51;70.51;99840.65;1719293;83;21084;-83
2022/06/01 01:25:32;;;;;;;2.95;1.52;;;;;;;13.48;70.38;99848.27;1718254;83;26899;-84
2022/06/01 01:28:00;;;;;;;1.75;1.30;;;;;;;13.47;70.34;99839.07;1719378;83;21108;-84
2022/06/01 01:30:44;;;;;;;1.45;1.35;;;;;;;13.44;70.32;99845.80;1719659;83;21659;-82
2022/06/01 01:33:15;;;;;;;2.45;1.60;;;;;;;13.42;70.24;99842.38;1719492;83;21608;-83
2022/06/01 01:35:47;;;;;;;1.50;1.40;;;;;;;13.40;70.18;99841.11;1719672;83;21042;-82
2022/06/01 01:38:25;;;;;;;2.50;1.40;;;;;;;13.37;70.13;99835.47;1736545;81;21154;-82
2022/06/01 01:41:08;;;;;;;1.85;1.57;;;;;;;13.36;69.94;99840.37;1747750;82;21066;-83
2022/06/01 01:44:11;;;;;;;1.57;1.47;;;;;;;13.35;69.99;99845.25;1740692;82;21098;-83
2022/06/01 01:46:37;;;;;;;3.25;1.40;;;;;;;13.37;69.79;99846.52;1748008;82;21003;-82
2022/06/01 01:49:04;;;;;;;3.12;1.30;;;;;;;13.36;69.56;99849.63;1747569;82;21012;-81
2022/06/01 01:51:31;;;;;;;1.50;1.40;;;;;;;13.35;69.38;99843.08;1747950;82;21155;-81
2022/06/01 01:54:01;;;;;;;1.50;1.40;;;;;;;13.33;69.21;99835.65;1747544;82;21012;-81
2022/06/01 01:56:51;;;;;;;1.52;1.42;;;;;;;13.33;69.05;99838.30;1748172;82;21108;-83
2022/06/01 01:59:38;;;;;;;1.62;1.52;;;;;;;13.32;68.79;99833.48;1737485;82;21008;-83
2022/06/01 02:02:27;;;;;;;1.92;1.57;;;;;;;13.29;68.62;99836.21;1747713;81;21150;-82
2022/06/01 02:08:19;;;;;;;3.90;1.40;;;;;;;13.24;68.58;99832.89;1747784;82;21542;-83
2022/06/01 02:13:32;;;;;;;1.55;1.45;;;;;;;13.18;68.13;99834.48;1724603;82;21047;-83
2022/06/01 02:15:59;;;;;;;3.12;1.12;;;;;;;13.15;68.14;99833.28;1747674;82;21111;-83
2022/06/01 02:18:31;;;;;;;3.65;1.50;;;;;;;13.13;67.77;99829.81;1747898;82;21103;-83
2022/06/01 02:21:06;;;;;;;1.37;1.27;;;;;;;13.10;67.70;99835.25;1747622;82;20984;-84
2022/06/01 02:23:33;;;;;;;1.60;1.50;;;;;;;13.06;67.46;99833.16;1747651;82;21126;-83
2022/06/01 02:26:00;;;;;;;1.62;1.40;;;;;;;13.06;67.06;99831.84;1747783;82;20992;-82
2022/06/01 02:28:29;;;;;;;1.70;1.37;;;;;;;13.07;67.06;99835.37;1748016;82;21008;-83
2022/06/01 02:30:59;;;;;;;2.20;1.50;;;;;;;13.06;66.70;99830.99;1747818;82;21167;-81
2022/06/01 02:33:32;;;;;;;1.50;1.40;;;;;;;13.07;66.60;99828.77;1747596;82;21111;-83
2022/06/01 02:35:58;;;;;;;1.30;1.20;;;;;;;13.07;66.43;99830.08;1748016;81;21538;-82
2022/06/01 02:38:36;;;;;;;1.42;1.30;;;;;;;13.09;66.26;99826.91;1746363;82;21910;-83
2022/06/01 02:41:04;;;;;;;6.53;1.47;;;;;;;13.12;66.09;99828.11;1733768;82;21024;-83
2022/06/01 02:43:33;;;;;;;1.50;1.40;;;;;;;13.13;65.91;99827.17;1733835;82;21173;-82
2022/06/01 02:46:00;;;;;;;2.77;1.40;;;;;;;13.18;66.04;99838.45;1737506;81;21565;-83
2022/06/01 02:48:27;;;;;;;1.70;1.60;;;;;;;13.21;66.16;99833.02;1738238;82;21498;-83
2022/06/01 02:50:53;;;;;;;1.50;1.40;;;;;;;13.23;66.26;99836.48;1747817;82;21157;-83
2022/06/01 02:53:21;;;;;;;1.77;1.42;;;;;;;13.25;66.26;99829.34;1747548;82;21932;-82
2022/06/01 02:55:48;;;;;;;1.45;1.35;;;;;;;13.29;66.23;99832.72;1747256;82;21052;-82
2022/06/01 02:58:16;;;;;;;1.32;1.32;;;;;;;13.30;66.26;99830.02;1747590;82;20991;-82
2022/06/01 03:00:42;;;;;;;1.72;1.62;;;;;;;13.32;66.18;99834.80;1747465;82;21048;-82
2022/06/01 03:03:09;;;;;;;1.30;1.30;;;;;;;13.33;66.24;99840.50;1747721;82;21130;-82
2022/06/01 03:05:38;;;;;;;1.57;1.47;;;;;;;13.34;66.29;99838.23;1747526;82;21038;-83
2022/06/01 03:08:05;;;;;;;2.02;1.20;;;;;;;13.37;66.42;99842.08;1747825;82;21092;-84
2022/06/01 03:10:32;;;;;;;1.40;1.40;;;;;;;13.41;66.33;99845.45;1747568;82;21491;-83
2022/06/01 03:12:59;;;;;;;1.50;1.40;;;;;;;13.46;66.57;99843.95;1747430;82;20984;-82
2022/06/01 03:15:26;;;;;;;1.70;1.60;;;;;;;13.48;66.66;99838.12;1747659;82;21044;-83
2022/06/01 03:17:54;;;;;;;2.70;1.47;;;;;;;13.51;66.62;99832.72;1747836;82;21090;-82
2022/06/01 03:20:23;;;;;;;1.70;1.60;;;;;;;13.54;66.70;99832.59;1747946;82;21053;-82
2022/06/01 03:22:51;;;;;;;1.55;1.42;;;;;;;13.59;66.63;99830.62;1747443;82;20988;-82
2022/06/01 03:25:19;;;;;;;1.47;1.37;;;;;;;13.60;66.66;99829.70;1747863;82;21320;-83
2022/06/01 03:27:47;;;;;;;3.83;1.60;;;;;;;13.62;66.65;99826.53;1747934;82;22290;-83
2022/06/01 03:30:15;;;;;;;6.67;1.90;;;;;;;13.66;66.64;99828.58;1747600;82;21106;-83
2022/06/01 03:32:44;;;;;;;1.80;1.52;;;;;;;13.69;66.60;99831.95;1743197;82;21819;-82
2022/06/01 03:35:11;;;;;;;2.22;1.65;;;;;;;13.74;66.64;99825.15;1733829;82;21028;-82
2022/06/01 03:37:38;;;;;;;2.27;1.70;;;;;;;13.81;66.84;99827.07;1733646;82;21100;-82
2022/06/01 03:40:06;;;;;;;3.72;1.82;;;;;;;13.86;66.82;99821.97;1742973;82;21035;-83
2022/06/01 03:42:33;;;;;;;2.60;1.80;;;;;;;13.93;66.82;99819.91;1747856;82;21436;-83
2022/06/01 03:47:45;;;;;;;1.60;1.50;;;;;;;14.08;66.61;99818.39;1747905;82;21072;-83
2022/06/01 03:50:12;;;;;;;1.85;1.75;;;;;;;14.16;66.27;99812.77;1747781;82;21051;-82
2022/06/01 03:52:39;;;;;;;3.08;1.57;;;;;;;14.23;66.32;99818.17;1747721;82;20996;-83
2022/06/01 03:55:08;;;;;;;5.53;2.25;;;;;;;14.29;66.18;99816.58;1748132;82;21016;-81
2022/06/01 03:57:36;;;;;;;1.95;1.85;;;;;;;14.36;66.21;99813.19;1747792;82;21285;-83
2022/06/01 04:00:06;;;;;;;2.87;2.30;;;;;;;14.41;65.82;99808.08;1747764;82;21110;-82
2022/06/01 04:02:37;;;;;;;2.40;2.17;;;;;;;14.45;65.71;99808.31;1747769;82;21542;-82
2022/06/01 04:05:05;;;;;;;4.45;2.22;;;;;;;14.52;65.56;99809.36;1747697;82;21060;-82
2022/06/01 04:07:31;;;;;;;2.17;1.87;;;;;;;14.57;65.57;99808.69;1747698;82;21122;-82
2022/06/01 04:09:58;;;;;;;2.52;2.00;;;;;;;14.63;65.74;99808.45;1747894;82;21590;-83
2022/06/01 04:12:24;;;;;;;1.80;1.70;;;;;;;14.67;65.97;99807.36;1747573;82;21107;-82
2022/06/01 04:14:52;;;;;;;1.70;1.60;;;;;;;14.73;65.89;99806.23;1747846;82;20996;-82
2022/06/01 04:17:19;;;;;;;3.10;1.70;;;;;;;14.78;65.53;99805.06;1747603;82;20989;-83
2022/06/01 04:19:46;;;;;;;3.33;1.70;;;;;;;14.84;65.77;99810.09;1747973;82;21000;-82
2022/06/01 04:22:12;;;;;;;2.10;1.60;;;;;;;14.91;65.35;99805.36;1747584;82;21123;-81
2022/06/01 04:24:38;;;;;;;4.85;1.70;;;;;;;14.97;65.16;99814.31;1720420;82;21086;-82
2022/06/01 04:27:06;;;;;;;2.92;1.98;;;;;;;15.00;65.06;99811.52;1747800;82;21131;-83
2022/06/01 04:29:34;;;;;;;1.95;1.85;;;;;;;15.05;65.01;99802.03;1747751;82;20988;-82
2022/06/01 04:32:07;;;;;;;2.33;1.90;;;;;;;15.11;64.92;99803.52;1748143;82;20996;-82
2022/06/01 04:34:33;;;;;;;1.87;1.70;;;;;;;15.16;64.96;99801.05;1746631;82;22392;-83
2022/06/01 04:37:00;;;;;;;4.30;1.87;;;;;;;15.23;65.44;99797.59;1747749;82;22061;-83
2022/06/01 04:39:27;;;;;;;3.75;1.77;;;;;;;15.30;65.32;99800.36;1747721;81;20992;-82
2022/06/01 04:41:53;;;;;;;2.00;1.80;;;;;;;15.40;65.65;99800.77;1747920;82;21054;-82
2022/06/01 04:44:19;;;;;;;1.90;1.80;;;;;;;15.48;65.87;99793.26;1747760;82;21001;-81
2022/06/01 04:46:46;;;;;;;2.00;1.85;;;;;;;15.57;65.33;99791.48;1747061;82;21226;-82
2022/06/01 04:49:13;;;;;;;1.70;1.60;;;;;;;15.67;65.40;99798.95;1746277;82;21260;-81
2022/06/01 04:51:41;;;;;;;5.87;1.90;;;;;;;15.73;65.03;99796.00;1747886;82;21111;-83
2022/06/01 04:54:07;;;;;;;3.05;1.75;;;;;;;15.76;64.70;99795.87;1747997;82;21524;-81
2022/06/01 04:56:34;;;;;;;2.12;1.80;;;;;;;15.78;64.40;99797.97;1747678;82;21036;-82
2022/06/01 04:59:01;;;;;;;2.10;1.90;;;;;;;15.81;64.33;99800.47;1747907;82;21500;-82
2022/06/01 05:01:28;;;;;;;3.87;1.92;;;;;;;15.83;64.41;99806.55;1747729;82;21432;-83
2022/06/01 05:03:54;;;;;;;2.12;1.92;;;;;;;15.84;64.62;99796.34;1747732;82;21059;-82
2022/06/01 05:06:20;;;;;;;2.27;2.08;;;;;;;15.84;64.53;99792.36;1748035;82;21135;-83
2022/06/01 05:08:48;;;;;;;5.20;2.20;;;;;;;15.85;64.84;99799.84;1748109;82;21472;-82
2022/06/01 05:11:15;;;;;;;7.85;2.20;;;;;;;15.88;64.53;99794.38;1747987;82;21125;-83
2022/06/01 05:13:41;;;;;;;1.98;1.87;;;;;;;15.91;64.08;99792.42;1747721;82;21051;-83
2022/06/01 05:16:09;;;;;;;3.87;2.20;;;;;;;15.96;64.52;99795.69;1747528;82;21024;-83
2022/06/01 05:18:39;;;;;;;4.97;2.22;;;;;;;16.05;64.32;99793.49;1747714;82;21123;-83
2022/06/01 05:21:05;;;;;;;3.67;1.95;;;;;;;16.12;64.63;99790.89;1747847;82;21067;-84
2022/06/01 05:23:32;;;;;;;2.75;2.55;;;;;;;16.20;64.44;99794.48;1747682;82;21129;-82
2022/06/01 05:25:59;;;;;;;3.87;2.08;;;;;;;16.27;64.46;99788.77;1747588;82;21039;-82
2022/06/01 05:28:27;;;;;;;4.50;2.30;;;;;;;16.35;64.12;99790.52;1747700;82;21099;-83
2022/06/01 05:31:03;;;;;;;4.28;2.12;;;;;;;16.44;64.45;99789.63;1747596;82;21874;-83
2022/06/01 05:33:30;;;;;;;2.47;1.60;;;;;;;16.53;64.47;99789.14;1747937;82;20991;-83
2022/06/01 05:35:56;;;;;;;4.50;2.02;;;;;;;16.58;64.24;99787.09;1747701;82;21467;-82
2022/06/01 05:38:23;;;;;;;6.10;2.37;;;;;;;16.64;63.82;99790.75;1747793;82;20996;-83
2022/06/01 05:40:49;;;;;;;6.58;2.17;;;;;;;16.70;63.74;99782.89;1737621;82;21562;-83
2022/06/01 05:43:17;;;;;;;2.83;2.05;;;;;;;16.76;64.09;99789.66;1733722;82;21582;-83
2022/06/01 05:45:44;;;;;;;3.25;2.10;;;;;;;16.86;64.27;99786.89;1733791;82;21067;-83
2022/06/01 05:48:13;;;;;;;2.10;1.92;;;;;;;16.94;63.72;99786.00;1733649;82;21099;-82
2022/06/01 05:50:39;;;;;;;3.08;2.08;;;;;;;17.02;63.80;99782.91;1733746;82;20984;-82
2022/06/01 05:53:06;;;;;;;5.58;2.08;;;;;;;17.11;63.67;99785.03;1733634;82;21110;-84
2022/06/01 05:55:35;;;;;;;4.08;2.22;;;;;;;17.21;62.80;99785.36;1733740;82;21122;-83
2022/06/01 05:58:15;;;;;;;4.80;2.10;;;;;;;17.26;61.82;99783.29;1733957;82;21547;-83
2022/06/01 06:00:42;;;;;;;2.92;2.10;;;;;;;17.31;62.08;99782.55;1733486;82;21147;-84
2022/06/01 06:03:10;;;;;;;2.80;2.10;;;;;;;17.38;61.93;99779.94;1733714;82;22077;-84
2022/06/01 06:08:22;;;;;;;4.35;2.42;;;;;;;17.57;63.44;99780.19;1733954;82;27615;-83
2022/06/01 06:10:51;;;;;;;3.02;2.30;;;;;;;17.69;63.25;99778.59;1733880;82;21457;-82
2022/06/01 06:13:18;;;;;;;6.55;2.27;;;;;;;17.78;61.98;99781.53;1733473;82;21546;-82
2022/06/01 06:15:46;;;;;;;4.67;2.83;;;;;;;17.87;62.35;99788.61;1733542;82;20997;-83
2022/06/01 06:18:14;;;;;;;3.00;2.58;;;;;;;17.98;62.90;99792.34;1733643;82;21111;-83
2022/06/01 06:20:42;;;;;;;2.85;2.40;;;;;;;18.08;62.30;99787.31;1733477;82;21072;-84
2022/06/01 06:23:10;;;;;;;4.87;2.65;;;;;;;18.16;61.69;99787.70;1733921;82;21039;-82
2022/06/01 06:25:37;;;;;;;3.45;2.67;;;;;;;18.25;61.02;99788.08;1733665;82;21998;-82
2022/06/01 06:28:04;;;;;;;4.62;2.90;;;;;;;18.32;61.54;99783.59;1737180;82;20973;-83
2022/06/01 06:30:31;;;;;;;5.20;2.70;;;;;;;18.42;62.07;99785.70;1733389;82;21071;-83
2022/06/01 06:32:58;;;;;;;5.00;3.05;;;;;;;18.53;61.54;99788.06;1733898;82;21150;-82
2022/06/01 06:35:25;;;;;;;8.68;3.10;;;;;;;18.63;61.73;99782.16;1733900;82;21107;-83
2022/06/01 06:37:52;;;;;;;5.50;2.70;;;;;;;18.72;62.54;99780.22;1733704;82;21137;-82
2022/06/01 06:40:19;;;;;;;2.95;2.72;;;;;;;18.84;62.70;99776.79;1738298;81;21095;-82
2022/06/01 06:42:45;;;;;;;6.00;2.87;;;;;;;18.97;61.96;99778.19;1747763;82;21158;-82
2022/06/01 06:45:11;;;;;;;3.20;2.90;;;;;;;19.05;60.52;99771.03;1747596;82;21051;-83
2022/06/01 06:47:38;;;;;;;7.15;2.70;;;;;;;19.07;60.20;99763.29;1747963;82;21067;-82
2022/06/01 06:50:07;;;;;;;4.35;3.62;;;;;;;19.15;60.21;99762.80;1747763;82;21137;-83
2022/06/01 06:52:34;;;;;;;6.28;3.65;;;;;;;19.25;60.56;99761.23;1748112;82;20984;-82
2022/06/01 06:55:00;;;;;;;5.03;2.90;;;;;;;19.34;60.96;99752.23;1747777;82;21056;-83
2022/06/01 06:57:27;;;;;;;8.58;4.45;;;;;;;19.45;60.96;99753.67;1747676;82;20993;-83
2022/06/01 06:59:53;;;;;;;4.72;3.90;;;;;;;19.55;61.06;99760.13;1748139;82;21114;-83
2022/06/01 07:02:20;;;;;;;8.18;3.40;;;;;;;19.65;61.39;99758.53;1747651;82;21117;-83
2022/06/01 07:04:47;;;;;;;3.70;3.17;;;;;;;19.76;61.48;99748.95;1748122;82;21057;-83
2022/06/01 07:07:15;;;;;;;4.00;3.22;;;;;;;19.86;61.96;99750.03;1747704;82;21626;-82
2022/06/01 07:09:42;;;;;;;4.72;3.22;;;;;;;20.00;61.46;99753.06;1748117;82;21020;-82
2022/06/01 07:12:10;;;;;;;8.60;3.75;;;;;;;20.13;62.11;99751.73;1747766;82;21071;-81
2022/06/01 07:14:37;;;;;;;4.00;3.20;;;;;;;20.26;62.21;99748.56;1748201;82;21692;-83
2022/06/01 07:17:04;;;;;;;4.78;3.02;;;;;;;20.36;61.43;99748.77;1747774;82;21063;-82
2022/06/01 07:19:31;;;;;;;5.28;3.58;;;;;;;20.47;61.13;99747.98;1747800;82;21048;-82
2022/06/01 07:21:57;;;;;;;4.25;2.92;;;;;;;20.57;61.28;99750.35;1747772;82;20998;-82
2022/06/01 07:24:23;;;;;;;4.37;3.10;;;;;;;20.68;61.82;99742.45;1747772;82;21111;-82
2022/06/01 07:26:50;;;;;;;6.33;3.10;;;;;;;20.80;61.73;99738.02;1748111;82;21075;-82
2022/06/01 07:29:18;;;;;;;6.67;3.50;;;;;;;20.91;61.46;99734.54;1747694;82;21058;-82
2022/06/01 07:31:46;;;;;;;7.80;3.75;;;;;;;21.01;60.59;99732.88;1747683;82;21063;-83
2022/06/01 07:34:12;;;;;;;5.70;3.70;;;;;;;21.11;60.46;99733.89;1748080;82;21043;-81
2022/06/01 07:36:40;;;;;;;8.48;3.45;;;;;;;21.21;59.77;99738.57;1747739;82;22032;-83
2022/06/01 07:44:23;;;;;;;6.92;3.92;;;;;;;21.44;59.67;99734.16;1734091;82;21491;-81
2022/06/01 07:46:49;;;;;;;14.85;4.08;;;;;;;21.51;59.62;99728.22;1733793;82;21029;-82
2022/06/01 07:49:16;;;;;;;4.25;3.60;;;;;;;21.61;59.84;99732.89;1734256;82;22069;-81
2022/06/01 07:51:43;;;;;;;6.85;3.65;;;;;;;21.67;59.90;99737.75;1733745;82;21957;-82
2022/06/01 07:54:09;;;;;;;8.03;3.92;;;;;;;21.74;59.40;99733.64;1733659;82;21044;-84
2022/06/01 07:56:36;;;;;;;5.00;3.37;;;;;;;21.80;59.60;99727.79;1733549;82;21456;-81
2022/06/01 07:59:05;;;;;;;7.37;3.25;;;;;;;21.88;59.71;99726.70;1733710;82;21508;-83
2022/06/01 08:01:35;;;;;;;12.35;4.17;;;;;;;21.98;60.40;99727.34;1733920;82;21139;-81
2022/06/01 08:04:03;;;;;;;5.87;3.92;;;;;;;22.08;60.16;99729.16;1733871;82;21064;-82
2022/06/01 08:06:30;;;;;;;7.15;3.85;;;;;;;22.17;60.29;99730.24;1733602;82;21048;-81
2022/06/01 08:08:57;;;;;;;4.70;3.67;;;;;;;22.29;59.74;99730.28;1734311;82;21496;-82
2022/06/01 08:14:12;;;;;;;5.95;3.70;;;;;;;22.48;59.48;99724.28;1716667;82;21003;-82
2022/06/01 08:16:40;;;;;;;4.47;3.50;;;;;;;22.56;58.04;99714.66;1716010;83;21998;-82
2022/06/01 08:19:07;;;;;;;11.08;5.00;;;;;;;22.63;58.58;99721.22;1722528;82;21597;-83
2022/06/01 08:21:35;;;;;;;6.92;4.20;;;;;;;22.72;58.13;99724.13;1733762;82;21070;-81
2022/06/01 08:24:03;;;;;;;5.05;3.45;;;;;;;22.82;58.49;99720.55;1733753;82;20985;-82
2022/06/01 08:26:30;;;;;;;10.28;3.83;;;;;;;22.91;57.93;99712.72;1733935;82;21459;-82
2022/06/01 08:28:56;;;;;;;12.07;6.70;;;;;;;22.99;57.67;99721.83;1733811;82;21873;-82
2022/06/01 08:31:27;;;;;;;11.05;3.85;;;;;;;23.07;56.89;99712.34;1734015;82;22371;-81
2022/06/01 08:33:52;;;;;;;9.45;3.30;;;;;;;23.13;55.67;99720.73;1733821;81;21040;-82
2022/06/01 08:36:18;;;;;;;5.35;4.03;;;;;;;23.20;56.46;99718.38;1733590;82;21060;-81
2022/06/01 08:38:46;;;;;;;6.60;3.12;;;;;;;23.29;56.39;99722.95;1733225;82;21060;-80
2022/06/01 08:41:13;;;;;;;5.47;3.77;;;;;;;23.36;55.73;99713.39;1729003;82;21133;-82
2022/06/01 08:43:45;;;;;;;8.43;3.50;;;;;;;23.47;56.23;99719.68;1740650;82;21061;-82
2022/06/01 08:46:13;;;;;;;8.00;4.17;;;;;;;23.56;54.76;99719.75;1740661;82;21077;-81
2022/06/01 08:48:44;;;;;;;5.42;3.72;;;;;;;23.63;55.92;99722.77;1740822;82;21001;-81
2022/06/01 08:51:14;;;;;;;11.35;4.15;;;;;;;23.69;56.13;99714.19;1740618;82;37212;-81
2022/06/01 08:53:42;;;;;;;6.28;3.90;;;;;;;23.78;54.94;99713.03;1741081;82;21151;-82
2022/06/01 08:56:13;;;;;;;5.45;3.83;;;;;;;23.85;54.19;99710.20;1740760;82;21557;-79
2022/06/01 08:59:03;;;;;;;5.15;3.60;;;;;;;23.90;54.35;99713.33;1740799;82;21510;-80
2022/06/01 09:02:05;;;;;;;18.73;15.32;;;;;;;23.91;54.14;99713.20;1739674;82;21069;-78
2022/06/01 09:04:57;;;;;;;5.45;4.92;;;;;;;23.90;53.92;99705.27;1726236;82;21053;-78
2022/06/01 09:07:33;;;;;;;7.42;4.05;;;;;;;23.94;53.69;99709.41;1740656;82;21527;-79
2022/06/01 09:10:35;;;;;;;7.20;3.40;;;;;;;24.00;53.98;99703.47;1719521;82;21569;-77
2022/06/01 09:13:13;;;;;;;3.47;3.12;;;;;;;24.11;53.94;99706.08;1602207;88;21481;-78
2022/06/01 09:15:57;;;;;;;4.55;3.62;;;;;;;24.22;53.05;99705.11;1630160;88;21167;-78
2022/06/01 09:18:28;;;;;;;7.55;3.00;;;;;;;24.24;52.37;99702.29;1690417;82;21065;-78
2022/06/01 09:23:41;;;;;;;7.12;3.60;;;;;;;24.36;53.56;99699.88;1740389;82;21026;-77
2022/06/01 09:26:07;;;;;;;8.33;3.60;;;;;;;24.45;52.46;99701.72;1740718;82;21572;-78
2022/06/01 09:28:43;;;;;;;8.68;3.87;;;;;;;24.55;53.25;99695.05;1740628;82;21528;-77
2022/06/01 09:31:18;;;;;;;3.17;2.85;;;;;;;24.63;51.96;99688.48;1738820;82;21599;-76
2022/06/01 09:33:45;;;;;;;6.47;3.47;;;;;;;24.65;50.94;99695.92;1733900;82;21167;-77
2022/06/01 09:36:23;;;;;;;5.08;3.25;;;;;;;24.71;52.37;99689.12;1713266;82;21072;-75
2022/06/01 09:38:57;;;;;;;5.97;3.52;;;;;;;24.78;52.62;99687.59;1733947;82;21994;-78
2022/06/01 09:41:40;;;;;;;5.53;3.87;;;;;;;24.84;51.22;99681.63;1737114;81;21055;-76
2022/06/01 09:44:11;;;;;;;4.42;3.52;;;;;;;24.91;51.35;99682.42;1742069;82;21503;-78
2022/06/01 09:46:54;;;;;;;4.83;3.70;;;;;;;24.95;51.67;99674.40;1741867;82;21128;-78
2022/06/01 09:49:32;;;;;;;6.47;3.30;;;;;;;24.91;50.78;99675.19;1742039;82;21060;-78
2022/06/01 09:52:13;;;;;;;7.30;3.70;;;;;;;24.88;50.63;99673.27;1742274;82;21095;-78
2022/06/01 09:54:43;;;;;;;5.90;3.20;;;;;;;24.83;50.40;99677.25;1741894;82;21499;-78
2022/06/01 09:57:27;;;;;;;9.98;3.50;;;;;;;24.85;50.87;99669.04;1742103;82;21610;-78
2022/06/01 10:08:25;;;;;;;5.08;3.65;;;;;;;25.48;51.22;99671.77;1742190;82;21000;-77
2022/06/01 10:11:04;;;;;;;8.13;3.70;;;;;;;25.61;50.37;99669.61;1741943;82;21078;-78
2022/06/01 10:13:37;;;;;;;8.98;3.17;;;;;;;25.72;50.62;99670.78;1742149;81;20973;-79
2022/06/01 10:16:19;;;;;;;6.33;3.58;;;;;;;25.86;50.96;99668.11;1741987;82;21071;-77
2022/06/01 10:18:46;;;;;;;7.55;4.05;;;;;;;26.01;49.04;99667.63;1741662;82;20996;-78
2022/06/01 10:21:15;;;;;;;4.08;3.10;;;;;;;26.09;49.10;99664.57;1742055;82;21106;-78
2022/06/01 10:23:57;;;;;;;5.83;3.27;;;;;;;26.11;49.62;99665.77;1742265;81;21044;-78
2022/06/01 10:26:33;;;;;;;6.72;3.75;;;;;;;26.13;49.11;99666.46;1708246;82;21118;-78
2022/06/01 10:29:14;;;;;;;8.00;4.08;;;;;;;26.18;48.25;99662.81;1714530;82;21504;-77
2022/06/01 10:31:50;;;;;;;5.65;2.90;;;;;;;26.25;47.32;99659.86;1741910;82;21126;-78
2022/06/01 10:34:47;;;;;;;3.67;2.98;;;;;;;26.26;47.43;99657.52;1708292;82;21044;-78
2022/06/01 10:37:34;;;;;;;4.97;3.40;;;;;;;26.24;46.31;99646.04;1742237;82;20996;-78
2022/06/01 10:40:09;;;;;;;14.95;3.30;;;;;;;26.20;47.31;99651.37;1742154;82;21448;-77
2022/06/01 10:45:37;;;;;;;3.95;2.50;;;;;;;26.39;46.67;99659.00;1715877;82;21049;-78
2022/06/01 10:48:36;;;;;;;7.15;2.52;;;;;;;26.40;45.21;99653.45;1717539;82;21462;-78
2022/06/01 10:51:19;;;;;;;5.78;2.50;;;;;;;26.45;45.51;99648.45;1747778;82;21554;-78
2022/06/01 10:53:58;;;;;;;9.68;2.83;;;;;;;26.58;45.54;99645.87;1747657;82;21792;-78
2022/06/01 10:56:25;;;;;;;3.72;2.55;;;;;;;26.68;44.76;99636.75;1747744;82;21106;-78
2022/06/01 10:58:55;;;;;;;6.28;2.72;;;;;;;26.81;44.47;99635.50;1747659;82;20990;-77
2022/06/01 11:02:01;;;;;;;5.33;2.40;;;;;;;26.94;44.55;99627.02;1747756;82;20995;-78
2022/06/01 11:05:02;;;;;;;6.45;2.45;;;;;;;26.92;42.73;99628.52;1747708;82;21023;-77
2022/06/01 11:07:53;;;;;;;3.90;2.02;;;;;;;26.79;43.35;99630.77;1747639;82;21138;-78
2022/06/01 11:10:48;;;;;;;4.58;2.08;;;;;;;26.79;43.83;99626.72;1747507;82;20996;-77
2022/06/01 11:13:43;;;;;;;4.70;2.33;;;;;;;26.87;43.79;99620.04;1748086;82;21101;-78
2022/06/01 11:16:42;;;;;;;8.35;1.92;;;;;;;26.99;42.89;99613.37;1747688;82;21045;-78
2022/06/01 11:19:49;;;;;;;5.78;2.22;;;;;;;27.12;42.53;99617.52;1747620;82;21027;-78
2022/06/01 11:22:47;;;;;;;4.72;2.30;;;;;;;27.13;43.02;99612.47;1747813;82;21113;-78
2022/06/01 11:25:56;;;;;;;3.72;2.37;;;;;;;27.11;41.83;99612.63;1747782;82;21141;-78
2022/06/01 11:29:07;;;;;;;5.33;2.52;;;;;;;26.90;41.87;99616.17;1747655;82;21042;-78
2022/06/01 11:31:34;;;;;;;2.70;2.35;;;;;;;26.77;42.95;99608.48;1745542;82;21031;-77
2022/06/01 11:34:12;;;;;;;3.30;2.40;;;;;;;26.79;44.17;99609.17;1734079;82;21100;-78
2022/06/01 11:37:02;;;;;;;3.22;2.02;;;;;;;26.79;42.79;99611.87;1734284;82;21768;-73
2022/06/01 11:39:48;;;;;;;6.53;2.65;;;;;;;26.81;41.91;99612.55;1733795;82;21044;-77
2022/06/01 11:42:55;;;;;;;4.87;2.37;;;;;;;26.90;43.07;99608.06;1733947;82;21049;-78
2022/06/01 11:45:27;;;;;;;4.42;2.25;;;;;;;27.06;43.10;99610.39;1733231;82;21012;-79
2022/06/01 11:47:57;;;;;;;7.62;2.35;;;;;;;27.30;42.67;99604.01;1733926;82;21111;-79
2022/06/01 11:50:46;;;;;;;5.78;2.50;;;;;;;27.49;44.42;99602.93;1711726;82;22038;-78
2022/06/01 11:53:34;;;;;;;6.05;2.00;;;;;;;27.66;42.56;99603.38;1734304;82;21124;-78
2022/06/01 11:56:16;;;;;;;3.35;2.00;;;;;;;27.80;41.44;99601.41;1733822;82;21159;-77
2022/06/01 11:58:47;;;;;;;5.28;1.82;;;;;;;27.90;42.39;99603.14;1733965;82;21539;-87
2022/06/01 12:01:38;;;;;;;3.12;1.77;;;;;;;27.99;42.85;99602.18;1733568;82;21079;-80
2022/06/01 12:04:22;;;;;;;5.37;1.82;;;;;;;28.09;41.68;99602.05;1733896;82;21298;-86
2022/06/01 12:07:15;;;;;;;2.42;2.10;;;;;;;28.07;41.20;99602.22;1734168;82;21473;-83
2022/06/01 12:09:51;;;;;;;5.92;1.87;;;;;;;28.02;41.03;99595.61;1733360;82;21064;-88
2022/06/01 12:12:38;;;;;;;4.17;1.92;;;;;;;27.90;40.77;99595.88;1733466;82;21004;-83
2022/06/01 12:15:40;;;;;;;6.45;2.45;;;;;;;27.77;40.77;99599.05;1733891;82;20993;-83
2022/06/01 12:18:29;;;;;;;2.67;1.67;;;;;;;27.66;41.29;99592.57;1733750;82;21105;-87
2022/06/01 12:20:54;;;;;;;5.45;2.20;;;;;;;27.59;40.27;99592.36;1733263;82;21044;-85
2022/06/01 12:29:07;;;;;;;4.65;1.87;;;;;;;27.30;41.27;99579.18;1664790;82;21000;-84
2022/06/01 12:31:38;;;;;;;6.65;2.15;;;;;;;27.47;42.52;99576.58;1733410;81;21143;-88
2022/06/01 12:34:25;;;;;;;4.78;1.80;;;;;;;27.68;42.15;99575.67;1733601;82;21048;-86
2022/06/01 12:37:09;;;;;;;3.62;2.10;;;;;;;27.90;41.61;99577.45;1713553;82;21092;-85